createdAt,value
2024-05-09T00:00:18.199Z,1.00
2024-05-09T00:02:14.354Z,0.68
2024-05-09T00:04:06.479Z,0.70
2024-05-09T00:05:58.655Z,0.60
2024-05-09T00:07:50.511Z,0.95
2024-05-09T00:09:42.279Z,0.68
2024-05-09T00:11:35.320Z,0.50
2024-05-09T00:13:27.670Z,0.60
2024-05-09T00:15:19.437Z,0.60
2024-05-09T00:17:11.233Z,0.60
2024-05-09T00:19:03.618Z,0.80
2024-05-09T00:20:56.055Z,0.57
2024-05-09T00:22:47.977Z,0.60
2024-05-09T00:24:39.932Z,0.57
2024-05-09T00:26:35.680Z,0.60
2024-05-09T00:28:27.482Z,0.85
2024-05-09T00:30:27.791Z,0.70
2024-05-09T00:32:25.053Z,1.05
2024-05-09T00:34:16.986Z,0.57
2024-05-09T00:36:09.016Z,0.40
2024-05-09T00:38:01.000Z,0.60
2024-05-09T00:39:52.975Z,0.70
2024-05-09T00:41:44.852Z,0.50
2024-05-09T00:43:36.680Z,0.63
2024-05-09T00:45:28.412Z,0.80
2024-05-09T00:47:20.366Z,0.70
2024-05-09T00:49:12.474Z,0.65
2024-05-09T00:51:07.535Z,0.43
2024-05-09T00:53:00.591Z,0.88
2024-05-09T00:54:53.234Z,0.60
2024-05-09T00:56:45.579Z,0.60
2024-05-09T00:58:41.977Z,0.60
2024-05-09T01:00:39.069Z,0.63
2024-05-09T01:02:32.924Z,0.73
2024-05-09T01:04:24.953Z,1.08
2024-05-09T01:06:16.723Z,0.38
2024-05-09T01:08:09.355Z,0.80
2024-05-09T01:10:01.556Z,0.70
2024-05-09T01:11:57.998Z,0.47
2024-05-09T01:13:49.768Z,0.52
2024-05-09T01:15:41.733Z,0.50
2024-05-09T01:17:34.174Z,0.90
2024-05-09T01:19:40.209Z,0.50
2024-05-09T01:21:32.228Z,0.50
2024-05-09T01:23:26.900Z,0.60
2024-05-09T01:25:18.628Z,0.68
2024-05-09T01:27:10.787Z,0.55
2024-05-09T01:29:02.600Z,0.47
2024-05-09T06:57:51.079Z,0.40
2024-05-09T06:59:23.407Z,0.30
2024-05-09T07:00:55.359Z,0.22
2024-05-09T07:02:27.271Z,0.50
2024-05-09T07:03:59.501Z,0.50
2024-05-09T07:05:31.429Z,0.20
2024-05-09T07:07:04.447Z,0.60
2024-05-09T07:08:36.356Z,0.30
2024-05-09T07:10:12.272Z,0.20
2024-05-09T07:11:46.863Z,0.32
2024-05-09T07:13:18.772Z,0.10
2024-05-09T07:15:10.751Z,0.20
2024-05-09T07:17:02.608Z,0.30
2024-05-09T07:18:54.625Z,0.30
2024-05-09T07:20:47.017Z,0.40
2024-05-09T07:22:39.109Z,0.30
2024-05-09T07:24:30.827Z,0.13
2024-05-09T07:26:22.618Z,0.10
2024-05-09T07:28:14.568Z,0.40
2024-05-09T07:30:07.345Z,0.30
2024-05-09T07:31:59.183Z,0.10
2024-05-09T07:33:51.283Z,0.10
2024-05-09T07:35:43.100Z,0.32
2024-05-09T07:37:34.898Z,0.30
2024-05-09T07:39:26.637Z,0.10
2024-05-09T07:41:18.416Z,0.15
2024-05-09T07:43:10.166Z,0.30
2024-05-09T07:45:21.050Z,0.10
2024-05-09T07:48:28.029Z,0.30
2024-05-09T07:54:29.803Z,0.22
2024-05-09T07:56:01.940Z,0.40
2024-05-09T07:57:33.849Z,0.30
2024-05-09T07:59:05.693Z,0.22
2024-05-09T08:00:37.539Z,0.20
2024-05-09T08:02:09.729Z,0.30
2024-05-09T08:03:41.753Z,0.20
2024-05-09T08:05:14.203Z,0.20
2024-05-09T08:06:46.221Z,0.20
2024-05-09T08:08:18.105Z,0.17
2024-05-09T08:09:49.962Z,0.30
2024-05-09T08:11:21.943Z,0.20
2024-05-09T08:12:54.129Z,0.25
2024-05-09T08:14:26.003Z,0.25
2024-05-09T08:15:58.040Z,0.25
2024-05-09T08:17:29.897Z,0.30
2024-05-09T08:19:01.945Z,0.10
2024-05-09T08:20:35.428Z,0.20
2024-05-09T08:22:07.799Z,0.30
2024-05-09T08:23:39.564Z,0.28
2024-05-09T08:25:13.541Z,0.40
2024-05-09T08:26:45.814Z,0.30
2024-05-09T08:28:17.821Z,0.15
2024-05-09T08:29:49.750Z,0.30
2024-05-09T08:31:21.621Z,0.30
2024-05-09T08:32:53.549Z,0.30
2024-05-09T08:34:45.755Z,0.30
2024-05-09T08:36:37.616Z,0.40
2024-05-09T08:38:29.525Z,0.68
2024-05-09T08:40:30.544Z,0.60
2024-05-09T08:42:28.255Z,0.70
2024-05-09T08:44:20.691Z,0.45
2024-05-09T08:46:12.473Z,0.70
2024-05-09T08:48:06.478Z,0.60
2024-05-09T08:49:58.802Z,0.55
2024-05-09T08:51:50.902Z,0.57
2024-05-09T08:53:42.739Z,0.30
2024-05-09T08:55:35.870Z,0.50
2024-05-09T08:57:29.293Z,0.30
2024-05-09T08:59:25.137Z,0.35
2024-05-09T09:01:17.702Z,0.60
2024-05-09T09:03:10.871Z,0.20
2024-05-09T09:05:10.311Z,0.57
2024-05-09T09:07:04.107Z,0.40
2024-05-09T09:08:59.237Z,0.80
2024-05-09T09:10:51.020Z,0.30
2024-05-09T09:12:42.825Z,0.10
2024-05-09T09:14:34.603Z,0.60
2024-05-09T09:16:26.613Z,0.30
2024-05-09T09:18:19.828Z,0.80
2024-05-09T09:20:16.441Z,1.15
2024-05-09T09:22:11.204Z,0.40
2024-05-09T09:24:03.502Z,0.70
2024-05-09T09:25:55.273Z,0.63
2024-05-09T09:27:52.926Z,1.55
2024-05-09T09:29:45.377Z,1.25
2024-05-09T09:31:39.160Z,0.77
2024-05-09T09:33:32.187Z,0.85
2024-05-09T09:35:24.579Z,0.30
2024-05-09T09:37:30.739Z,0.65
2024-05-09T09:39:22.908Z,0.40
2024-05-09T09:41:14.757Z,0.50
2024-05-09T09:43:09.756Z,0.25
2024-05-09T09:45:05.223Z,0.60
2024-05-09T09:46:58.858Z,0.60
2024-05-09T09:48:55.894Z,0.47
2024-05-09T09:50:48.548Z,0.10
2024-05-09T09:52:41.506Z,0.25
2024-05-09T09:54:33.836Z,0.50
2024-05-09T09:56:27.710Z,0.38
2024-05-09T09:58:20.450Z,0.82
2024-05-09T10:00:20.733Z,1.05
2024-05-09T10:02:16.092Z,0.50
2024-05-09T10:04:08.283Z,0.40
2024-05-09T10:06:00.824Z,0.40
2024-05-09T10:07:54.576Z,0.17
2024-05-09T10:09:46.844Z,0.43
2024-05-09T10:11:45.594Z,0.40
2024-05-09T10:13:41.235Z,0.30
2024-05-09T10:15:33.076Z,0.22
2024-05-09T10:17:25.569Z,0.30
2024-05-09T10:19:17.662Z,0.50
2024-05-09T10:21:09.578Z,0.82
2024-05-09T10:23:07.200Z,0.75
2024-05-09T10:25:12.856Z,0.50
2024-05-09T10:27:12.062Z,0.50
2024-05-09T10:29:03.827Z,0.32
2024-05-09T10:30:55.809Z,0.40
2024-05-09T10:32:48.666Z,0.52
2024-05-09T10:34:41.989Z,0.80
2024-05-09T10:36:46.579Z,0.40
2024-05-09T10:38:38.592Z,0.45
2024-05-09T10:40:36.280Z,0.40
2024-05-09T10:42:30.230Z,0.40
2024-05-09T10:44:22.075Z,0.70
2024-05-09T10:46:13.974Z,0.22
2024-05-09T10:48:06.078Z,0.40
2024-05-09T10:49:59.208Z,0.38
2024-05-09T10:51:51.139Z,0.45
2024-05-09T10:53:42.950Z,0.38
2024-05-09T10:55:34.972Z,0.50
2024-05-09T10:57:27.469Z,0.70
2024-05-09T10:59:19.275Z,0.47
2024-05-09T11:01:11.649Z,1.10
2024-05-09T11:03:03.783Z,0.55
2024-05-09T11:04:56.994Z,0.95
2024-05-09T11:06:49.197Z,1.05
2024-05-09T11:08:41.855Z,0.40
2024-05-09T11:10:34.679Z,0.73
2024-05-09T11:12:27.240Z,0.50
2024-05-09T11:14:18.955Z,0.50
2024-05-09T11:16:10.807Z,0.65
2024-05-09T11:18:02.679Z,0.40
2024-05-09T11:19:58.213Z,0.40
2024-05-09T11:21:50.041Z,0.40
2024-05-09T11:23:43.569Z,0.40
2024-05-09T11:25:35.466Z,0.30
2024-05-09T11:27:27.235Z,0.40
2024-05-09T11:29:19.821Z,0.38
2024-05-09T11:31:11.824Z,0.35
2024-05-09T11:33:03.890Z,0.40
2024-05-09T11:34:55.996Z,0.40
2024-05-09T11:36:47.785Z,0.40
2024-05-09T11:38:39.637Z,0.35
2024-05-09T11:42:23.841Z,0.40
2024-05-09T11:44:15.568Z,0.20
2024-05-09T11:46:07.326Z,0.30
2024-05-09T11:47:59.930Z,0.40
2024-05-09T11:49:51.880Z,0.40
2024-05-09T11:51:43.739Z,0.20
2024-05-09T11:53:35.517Z,0.20
2024-05-09T11:55:28.540Z,0.28
2024-05-09T11:57:20.513Z,0.43
2024-05-09T11:59:12.447Z,0.52
2024-05-09T12:01:04.552Z,0.17
2024-05-09T12:02:56.480Z,0.40
2024-05-09T12:04:48.415Z,0.38
2024-05-09T12:06:40.829Z,0.20
2024-05-09T12:08:32.707Z,0.20
2024-05-09T12:10:32.564Z,0.28
2024-05-09T12:12:26.994Z,0.17
2024-05-09T12:14:18.723Z,0.20
2024-05-09T12:16:10.518Z,0.20
2024-05-09T12:18:03.913Z,0.20
2024-05-09T12:19:57.043Z,0.30
2024-05-09T12:21:48.853Z,0.20
2024-05-09T12:23:40.666Z,0.20
2024-05-09T12:25:32.488Z,0.30
2024-05-09T12:27:24.993Z,0.30
2024-05-09T12:29:16.710Z,0.50
2024-05-09T12:31:08.454Z,0.30
2024-05-09T12:33:00.306Z,0.28
2024-05-09T12:34:52.135Z,0.38
2024-05-09T12:36:43.928Z,0.40
2024-05-09T12:38:35.722Z,0.20
2024-05-09T12:40:35.555Z,0.25
2024-05-09T12:42:31.351Z,0.20
2024-05-09T12:44:25.155Z,0.30
2024-05-09T12:46:16.937Z,0.22
2024-05-09T12:48:08.977Z,0.30
2024-05-09T12:50:00.907Z,0.30
2024-05-09T12:51:52.686Z,0.20
2024-05-09T12:53:44.669Z,0.30
2024-05-09T12:55:44.111Z,0.40
2024-05-09T12:57:40.858Z,0.63
2024-05-09T12:59:32.641Z,0.50
2024-05-09T13:01:24.655Z,0.60
2024-05-09T13:03:16.690Z,0.30
2024-05-09T13:05:08.814Z,0.40
2024-05-09T13:07:00.769Z,0.22
2024-05-09T13:08:52.705Z,0.40
2024-05-09T13:10:44.940Z,0.28
2024-05-09T13:12:36.723Z,0.40
2024-05-09T13:14:28.494Z,0.30
2024-05-09T13:16:20.461Z,0.45
2024-05-09T13:18:12.482Z,0.50
2024-05-09T13:20:05.525Z,0.40
2024-05-09T13:21:58.793Z,0.50
2024-05-09T13:23:50.515Z,0.30
2024-05-09T13:25:42.243Z,0.43
2024-05-09T13:27:34.148Z,0.30
2024-05-09T13:29:25.914Z,0.20
2024-05-09T13:31:17.838Z,0.30
2024-05-09T13:33:10.680Z,0.32
2024-05-09T13:35:03.315Z,0.47
2024-05-09T13:36:55.231Z,0.43
2024-05-09T13:38:47.332Z,0.20
2024-05-09T13:40:39.146Z,0.30
2024-05-09T13:42:31.000Z,0.30
2024-05-09T13:44:23.691Z,0.47
2024-05-09T13:46:15.647Z,0.20
2024-05-09T13:48:07.607Z,0.30
2024-05-09T13:49:59.539Z,0.30
2024-05-09T13:51:51.305Z,0.20
2024-05-09T13:53:43.100Z,0.28
2024-05-09T13:55:34.929Z,0.17
2024-05-09T13:57:26.825Z,0.20
2024-05-09T13:59:18.757Z,0.20
2024-05-09T14:01:10.722Z,0.20
2024-05-09T14:03:02.730Z,0.28
2024-05-09T14:04:54.696Z,0.30
2024-05-09T14:06:46.727Z,0.50
2024-05-09T14:08:38.786Z,0.22
2024-05-09T14:10:31.977Z,0.32
2024-05-09T14:12:24.656Z,0.30
2024-05-09T14:14:16.452Z,0.20
2024-05-09T14:16:08.639Z,0.20
2024-05-09T14:18:00.568Z,0.20
2024-05-09T14:19:52.359Z,0.40
2024-05-09T14:21:44.136Z,0.10
2024-05-09T14:23:38.264Z,0.10
2024-05-09T14:25:30.052Z,0.40
2024-05-09T14:27:21.916Z,0.40
2024-05-09T14:29:14.057Z,0.95
2024-05-09T14:31:05.936Z,0.43
2024-05-09T14:32:57.756Z,0.52
2024-05-09T14:34:50.660Z,0.50
2024-05-09T14:36:42.592Z,0.50
2024-05-09T14:38:34.434Z,0.50
2024-05-09T14:40:37.021Z,0.45
2024-05-09T14:42:33.839Z,0.30
2024-05-09T14:44:25.796Z,0.40
2024-05-09T14:46:17.656Z,0.20
2024-05-09T14:48:09.999Z,0.30
2024-05-09T14:50:02.231Z,0.35
2024-05-09T14:51:54.613Z,0.38
2024-05-09T14:53:46.330Z,0.35
2024-05-09T14:55:38.383Z,0.20
2024-05-09T14:57:30.417Z,0.40
2024-05-09T14:59:22.265Z,0.20
2024-05-09T15:01:14.133Z,0.22
2024-05-09T15:03:05.993Z,0.30
2024-05-09T15:04:57.912Z,0.20
2024-05-09T15:06:49.854Z,0.30
2024-05-09T15:08:41.648Z,0.25
2024-05-09T15:10:35.909Z,0.40
2024-05-09T15:12:28.946Z,0.40
2024-05-09T15:14:20.681Z,1.80
2024-05-09T15:16:12.651Z,2.45
2024-05-09T15:18:05.293Z,2.13
2024-05-09T15:19:57.509Z,2.40
2024-05-09T15:22:08.389Z,1.67
2024-05-09T15:24:00.315Z,1.02
2024-05-09T15:25:55.854Z,1.42
2024-05-09T15:27:47.949Z,0.65
2024-05-09T15:29:39.717Z,1.10
2024-05-09T15:31:31.614Z,0.60
2024-05-09T15:33:23.623Z,0.55
2024-05-09T15:35:15.955Z,0.80
2024-05-09T15:37:07.858Z,1.05
2024-05-09T15:38:59.620Z,0.40
2024-05-09T15:40:51.572Z,0.90
2024-05-09T15:42:43.527Z,1.25
2024-05-09T15:44:35.321Z,0.75
2024-05-09T15:46:27.560Z,0.50
2024-05-09T15:48:19.640Z,1.13
2024-05-09T15:50:20.252Z,0.35
2024-05-09T15:52:19.668Z,0.28
2024-05-09T15:54:11.464Z,0.40
2024-05-09T15:56:03.335Z,0.63
2024-05-09T15:57:55.148Z,0.40
2024-05-09T15:59:47.119Z,0.32
2024-05-09T16:01:38.899Z,0.60
2024-05-09T16:03:31.571Z,0.95
2024-05-09T16:05:23.732Z,0.70
2024-05-09T16:07:15.611Z,0.30
2024-05-09T16:09:07.365Z,0.45
2024-05-09T16:11:00.509Z,0.50
2024-05-09T16:12:52.482Z,0.63
2024-05-09T16:14:44.214Z,0.40
2024-05-09T16:16:36.336Z,0.40
2024-05-09T16:18:28.387Z,0.40
2024-05-09T16:20:33.231Z,0.38
2024-05-09T16:22:30.447Z,0.20
2024-05-09T16:24:22.159Z,0.10
2024-05-09T16:26:14.074Z,0.20
2024-05-09T16:28:09.078Z,0.20
2024-05-09T16:30:04.121Z,0.50
2024-05-09T16:31:58.676Z,0.30
2024-05-09T16:33:50.661Z,0.50
2024-05-09T16:35:42.479Z,0.20
2024-05-09T16:37:34.333Z,0.65
2024-05-09T16:39:26.189Z,0.55
2024-05-09T16:41:17.934Z,0.70
2024-05-09T16:43:10.456Z,0.50
2024-05-09T16:45:02.620Z,1.00
2024-05-09T16:46:54.555Z,0.68
2024-05-09T16:48:46.424Z,0.88
2024-05-09T16:50:38.218Z,0.30
2024-05-09T16:52:29.938Z,0.30
2024-05-09T16:54:21.919Z,0.43
2024-05-09T16:56:13.805Z,0.52
2024-05-09T16:58:05.756Z,0.70
2024-05-09T16:59:57.577Z,0.28
2024-05-09T17:01:49.400Z,0.60
2024-05-09T17:03:42.827Z,1.05
2024-05-09T17:05:35.381Z,0.52
2024-05-09T17:07:27.602Z,0.30
2024-05-09T17:09:20.157Z,0.50
2024-05-09T17:11:12.378Z,0.35
2024-05-09T17:13:05.289Z,1.10
2024-05-09T17:14:58.678Z,0.55
2024-05-09T17:16:50.526Z,0.50
2024-05-09T17:18:42.434Z,0.60
2024-05-09T17:20:36.699Z,0.80
2024-05-09T17:22:29.383Z,0.60
2024-05-09T17:24:21.168Z,0.47
2024-05-09T17:26:13.030Z,0.85
2024-05-09T17:28:05.030Z,0.40
2024-05-09T17:29:57.257Z,0.57
2024-05-09T17:31:48.992Z,0.52
2024-05-09T17:33:40.876Z,0.65
2024-05-09T17:35:33.061Z,0.50
2024-05-09T17:37:24.979Z,0.90
2024-05-09T17:39:16.796Z,0.43
2024-05-09T17:41:08.673Z,0.70
2024-05-09T17:43:00.571Z,0.65
2024-05-09T17:44:52.414Z,0.40
2024-05-09T17:46:44.447Z,0.30
2024-05-09T17:48:37.529Z,0.73
2024-05-09T17:52:24.387Z,0.60
2024-05-09T17:54:16.133Z,0.60
2024-05-09T17:56:07.963Z,0.52
2024-05-09T17:57:59.954Z,0.73
2024-05-09T17:59:51.799Z,0.77
2024-05-09T18:01:43.600Z,1.40
2024-05-09T18:03:35.705Z,0.47
2024-05-09T18:05:27.732Z,0.50
2024-05-09T18:07:19.798Z,0.50
2024-05-09T18:09:11.653Z,0.57
2024-05-09T18:11:03.484Z,0.50
2024-05-09T18:12:55.585Z,0.57
2024-05-09T18:14:48.084Z,0.50
2024-05-09T18:16:40.575Z,0.70
2024-05-09T18:18:33.038Z,0.60
2024-05-09T18:20:36.071Z,0.40
2024-05-09T18:22:33.394Z,0.38
2024-05-09T18:24:25.476Z,0.20
2024-05-09T18:26:17.651Z,0.30
2024-05-09T18:28:09.598Z,0.40
2024-05-09T18:30:01.425Z,0.30
2024-05-09T18:31:53.408Z,0.30
2024-05-09T18:33:45.554Z,0.22
2024-05-09T18:35:37.425Z,0.22
2024-05-09T18:37:29.350Z,0.20
2024-05-09T18:39:21.136Z,0.15
2024-05-09T18:41:13.813Z,0.20
2024-05-09T18:43:07.557Z,0.10
2024-05-09T18:45:00.622Z,0.20
2024-05-09T18:46:52.440Z,0.20
2024-05-09T18:48:44.437Z,0.25
2024-05-09T18:50:39.195Z,0.47
2024-05-09T18:52:32.954Z,0.20
2024-05-09T18:54:24.871Z,0.10
2024-05-09T18:56:16.705Z,0.10
2024-05-09T18:58:08.602Z,0.10
2024-05-09T19:00:00.494Z,0.17
2024-05-09T19:01:52.397Z,0.20
2024-05-09T19:03:44.690Z,0.30
2024-05-09T19:05:36.882Z,0.10
2024-05-09T19:07:28.861Z,0.17
2024-05-09T19:09:20.611Z,0.20
2024-05-09T19:11:12.501Z,0.10
2024-05-09T19:13:08.823Z,0.22
2024-05-09T19:15:03.789Z,0.20
2024-05-09T19:16:55.696Z,0.13
2024-05-09T19:18:47.619Z,0.15
2024-05-09T19:20:39.787Z,0.20
2024-05-09T19:22:32.048Z,0.17
2024-05-09T19:24:24.019Z,0.20
2024-05-09T19:26:15.747Z,0.50
2024-05-09T19:28:07.802Z,0.10
2024-05-09T19:29:59.593Z,0.08
2024-05-09T19:31:51.461Z,0.10
2024-05-09T19:33:43.612Z,0.25
2024-05-09T19:35:35.508Z,0.13
2024-05-09T19:37:27.267Z,0.40
2024-05-09T19:39:19.192Z,0.20
2024-05-09T19:41:10.946Z,0.22
2024-05-09T19:43:03.598Z,0.10
2024-05-09T19:44:55.932Z,0.30
2024-05-09T19:46:47.814Z,0.25
2024-05-09T19:48:40.687Z,0.20
2024-05-09T19:50:40.636Z,0.30
2024-05-09T19:52:35.533Z,0.10
2024-05-09T19:54:27.482Z,0.13
2024-05-09T19:56:19.388Z,0.15
2024-05-09T19:58:11.843Z,0.20
2024-05-09T20:00:05.898Z,0.17
2024-05-09T20:01:58.095Z,0.20
2024-05-09T20:03:50.220Z,0.20
2024-05-09T20:05:42.297Z,0.20
2024-05-09T20:07:36.315Z,0.20
2024-05-09T20:09:28.210Z,0.20
2024-05-09T20:11:20.029Z,0.30
2024-05-09T20:13:11.917Z,0.20
2024-05-09T20:15:03.691Z,0.17
2024-05-09T20:16:55.427Z,0.10
2024-05-09T20:18:47.766Z,0.13
2024-05-09T20:20:42.637Z,0.20
2024-05-09T20:22:35.944Z,0.30
2024-05-09T20:24:27.943Z,0.20
2024-05-09T20:26:19.720Z,0.20
2024-05-09T20:28:11.608Z,0.30
2024-05-09T20:30:07.978Z,0.17
2024-05-09T20:32:03.443Z,0.20
2024-05-09T20:33:55.339Z,0.40
2024-05-09T20:35:47.239Z,0.20
2024-05-09T20:37:39.217Z,0.20
2024-05-09T20:39:30.939Z,0.22
2024-05-09T20:41:22.742Z,0.50
2024-05-09T20:43:14.495Z,0.30
2024-05-09T20:45:06.313Z,0.40
2024-05-09T20:46:59.459Z,0.30
2024-05-09T20:48:51.317Z,0.20
2024-05-09T20:50:43.230Z,0.30
2024-05-09T20:52:35.225Z,0.30
2024-05-09T20:54:26.939Z,0.10
2024-05-09T20:56:18.659Z,0.30
2024-05-09T20:58:10.802Z,0.20
2024-05-09T21:00:03.357Z,0.20
2024-05-09T21:01:56.252Z,0.20
2024-05-09T21:03:48.334Z,0.13
2024-05-09T21:05:40.819Z,0.10
2024-05-09T21:07:32.899Z,0.22
2024-05-09T21:09:24.743Z,0.40
2024-05-09T21:11:16.467Z,0.15
2024-05-09T21:13:08.330Z,0.47
2024-05-09T21:15:00.233Z,0.40
2024-05-09T21:16:52.123Z,0.40
2024-05-09T21:18:44.004Z,0.30
2024-05-09T21:20:35.835Z,0.30
2024-05-09T21:22:27.620Z,0.35
2024-05-09T21:24:19.329Z,0.30
2024-05-09T21:26:11.101Z,0.20
2024-05-09T21:28:02.962Z,0.28
2024-05-09T21:29:54.743Z,0.45
2024-05-09T21:31:46.618Z,0.30
2024-05-09T21:33:38.657Z,0.30
2024-05-09T21:35:33.011Z,0.30
2024-05-09T21:37:25.038Z,0.30
2024-05-09T21:39:16.853Z,0.25
2024-05-09T21:41:08.598Z,0.30
2024-05-09T21:43:00.634Z,0.30
2024-05-09T21:44:52.659Z,0.20
2024-05-09T21:46:44.415Z,0.22
2024-05-09T21:48:36.508Z,0.38
2024-05-09T21:50:36.522Z,0.30
2024-05-09T21:52:32.266Z,0.30
2024-05-09T21:54:24.036Z,0.20
2024-05-09T21:56:15.875Z,0.25
2024-05-09T21:58:07.721Z,0.40
2024-05-09T21:59:59.532Z,0.30
2024-05-09T22:01:51.440Z,0.40
2024-05-09T22:03:43.442Z,0.25
2024-05-09T22:05:35.391Z,0.25
2024-05-09T22:07:27.330Z,0.60
2024-05-09T22:09:19.039Z,0.30
2024-05-09T22:11:10.899Z,0.30
2024-05-09T22:13:02.780Z,0.30
2024-05-09T22:14:54.543Z,0.40
2024-05-09T22:16:46.578Z,0.25
2024-05-09T22:18:37.196Z,0.32
2024-05-09T22:20:36.443Z,0.52
2024-05-09T22:22:30.819Z,0.50
2024-05-09T22:24:22.550Z,0.60
2024-05-09T22:26:14.263Z,0.63
2024-05-09T22:28:06.356Z,0.60
2024-05-09T22:29:58.687Z,1.15
2024-05-09T22:31:50.450Z,0.20
2024-05-09T22:33:44.705Z,0.32
2024-05-09T22:35:37.972Z,0.20
2024-05-09T22:37:29.687Z,0.10
2024-05-09T22:39:21.493Z,0.22
2024-05-09T22:41:13.341Z,0.60
2024-05-09T22:43:05.287Z,0.25
2024-05-09T22:44:57.228Z,0.20
2024-05-09T22:46:48.953Z,0.40
2024-05-09T22:48:40.897Z,0.40
2024-05-09T22:50:33.651Z,0.38
2024-05-09T22:52:25.911Z,0.30
2024-05-09T22:53:57.711Z,0.77
2024-05-09T22:55:30.008Z,0.50
2024-05-09T22:57:01.844Z,0.30
2024-05-09T22:58:33.843Z,0.20
2024-05-09T23:00:07.962Z,0.35
2024-05-09T23:01:41.849Z,0.28
2024-05-09T23:03:16.616Z,0.70
2024-05-09T23:04:48.649Z,0.28
2024-05-09T23:06:20.512Z,0.40
2024-05-09T23:07:52.445Z,0.20
2024-05-09T23:09:24.250Z,0.28
2024-05-09T23:10:56.352Z,0.68
2024-05-09T23:12:28.139Z,0.28
2024-05-09T23:14:00.101Z,0.30
2024-05-09T23:15:31.919Z,0.40
2024-05-09T23:17:04.071Z,0.47
2024-05-09T23:18:36.034Z,0.50
2024-05-09T23:20:11.543Z,0.40
2024-05-09T23:21:43.760Z,0.55
2024-05-09T23:23:15.560Z,0.35
2024-05-09T23:24:48.025Z,0.32
2024-05-09T23:26:39.905Z,0.40
2024-05-09T23:28:32.002Z,0.52
2024-05-09T23:30:33.560Z,0.50
2024-05-09T23:32:29.967Z,0.43
2024-05-09T23:34:21.899Z,0.50
2024-05-09T23:36:13.892Z,0.40
2024-05-09T23:38:06.274Z,0.45
2024-05-09T23:39:58.036Z,0.40
2024-05-09T23:41:49.810Z,0.30
2024-05-09T23:43:41.715Z,0.40
2024-05-09T23:45:33.897Z,0.38
2024-05-09T23:47:26.029Z,0.57
2024-05-09T23:49:17.994Z,0.77
2024-05-09T23:51:09.705Z,0.40
2024-05-09T23:53:01.503Z,0.30
2024-05-09T23:54:53.944Z,0.60
2024-05-09T23:56:45.675Z,0.40
2024-05-09T23:58:37.451Z,0.70
